Time;durP1;ratioP1;P1;durP2;ratioP2;P2;SDS_P1;SDS_P2;PMS_P1;PMS_P2;Temp;Humidity;BMP_temperature;BMP_pressure;BME280_temperature;BME280_humidity;BME280_pressure;Samples;Min_cycle;Max_cycle;Signal;HPM_P1;HPM_P2
2022/05/15 00:00:52;;;;;;;11.10;6.10;;;21.70;55.00;;;;;;5034231;28;20033;-81
2022/05/15 00:03:21;;;;;;;9.10;6.35;;;21.70;54.90;;;;;;5027328;28;20543;-79
2022/05/15 00:05:53;;;;;;;11.88;6.80;;;21.60;54.90;;;;;;5033003;28;20021;-81
2022/05/15 00:08:32;;;;;;;8.85;6.25;;;21.50;55.30;;;;;;5033072;28;20026;-83
2022/05/15 00:10:59;;;;;;;10.20;7.40;;;21.50;55.20;;;;;;5016177;28;20099;-83
2022/05/15 00:13:29;;;;;;;10.57;6.43;;;21.50;55.20;;;;;;5016305;28;20025;-91
2022/05/15 00:15:55;;;;;;;9.47;6.20;;;21.20;55.70;;;;;;5034179;28;20025;-84
2022/05/15 00:18:22;;;;;;;8.40;5.78;;;21.10;55.80;;;;;;5030630;28;20072;-83
2022/05/15 00:20:49;;;;;;;7.25;5.47;;;21.10;56.00;;;;;;5031643;28;20030;-82
2022/05/15 00:23:16;;;;;;;7.68;5.30;;;21.30;55.80;;;;;;5033746;28;20113;-83
2022/05/15 00:25:41;;;;;;;11.48;5.30;;;21.30;55.60;;;;;;5033613;28;20017;-83
2022/05/15 00:28:08;;;;;;;9.68;5.40;;;21.30;55.60;;;;;;5033598;28;20448;-88
2022/05/15 00:30:35;;;;;;;7.35;5.40;;;21.30;55.80;;;;;;5016994;28;20036;-85
2022/05/15 00:33:04;;;;;;;8.68;5.95;;;21.20;55.70;;;;;;5034069;28;20124;-85
2022/05/15 00:35:37;;;;;;;7.63;5.93;;;21.20;56.00;;;;;;5015803;28;20072;-86
2022/05/15 00:38:04;;;;;;;11.10;6.20;;;21.30;56.10;;;;;;4998882;28;20044;-78
2022/05/15 00:40:30;;;;;;;9.15;6.07;;;21.40;55.70;;;;;;5034381;28;20032;-85
2022/05/15 00:42:56;;;;;;;7.25;5.82;;;21.40;55.60;;;;;;5013201;28;20022;-86
2022/05/15 00:45:22;;;;;;;11.13;5.75;;;21.30;55.80;;;;;;5007986;28;20029;-81
2022/05/15 00:47:49;;;;;;;7.93;5.80;;;21.00;56.10;;;;;;5033550;28;20464;-86
2022/05/15 00:50:20;;;;;;;7.60;5.78;;;21.10;56.30;;;;;;5033013;28;20029;-81
2022/05/15 00:52:48;;;;;;;10.57;6.05;;;21.10;56.10;;;;;;5022411;28;20030;-86
2022/05/15 00:55:20;;;;;;;8.38;5.45;;;21.00;56.60;;;;;;5015397;28;20021;-82
2022/05/15 00:58:03;;;;;;;8.30;5.55;;;20.90;55.90;;;;;;5016135;28;20033;-80
2022/05/15 01:00:30;;;;;;;7.53;5.07;;;21.00;56.00;;;;;;5033429;28;20021;-83
2022/05/15 01:03:26;;;;;;;8.18;5.40;;;20.90;55.70;;;;;;5033878;28;20030;-80
2022/05/15 01:05:55;;;;;;;8.77;5.00;;;21.10;55.30;;;;;;4971993;28;20092;-85
2022/05/15 01:08:22;;;;;;;9.13;4.90;;;21.20;54.70;;;;;;4976326;28;20518;-80
2022/05/15 01:10:52;;;;;;;7.25;4.80;;;21.30;54.80;;;;;;4972491;28;20082;-81
2022/05/15 01:13:21;;;;;;;7.35;5.03;;;21.50;54.70;;;;;;4972929;28;20051;-87
2022/05/15 01:15:47;;;;;;;9.43;5.32;;;21.40;55.10;;;;;;4973246;28;20031;-84
2022/05/15 01:18:20;;;;;;;8.57;5.45;;;21.40;55.40;;;;;;4976989;28;20042;-82
2022/05/15 01:20:46;;;;;;;7.85;4.90;;;21.40;55.30;;;;;;4960356;28;20481;-79
2022/05/15 01:23:12;;;;;;;9.52;5.18;;;21.20;55.90;;;;;;4987806;28;20049;-81
2022/05/15 01:25:38;;;;;;;7.07;5.45;;;21.10;56.20;;;;;;4980833;28;20027;-87
2022/05/15 01:28:10;;;;;;;6.68;4.97;;;20.70;56.80;;;;;;4976645;28;20384;-81
2022/05/15 01:30:42;;;;;;;7.55;5.38;;;20.50;57.40;;;;;;4976494;28;20039;-88
2022/05/15 01:33:08;;;;;;;7.30;5.40;;;20.70;57.20;;;;;;4971759;28;20031;-84
2022/05/15 01:35:35;;;;;;;6.97;5.30;;;20.70;57.40;;;;;;4959601;28;20035;-86
2022/05/15 01:38:01;;;;;;;6.13;5.25;;;20.90;57.10;;;;;;4976170;28;20050;-80
2022/05/15 01:40:27;;;;;;;9.13;5.30;;;20.90;57.20;;;;;;4959559;28;20026;-80
2022/05/15 01:42:52;;;;;;;7.43;5.22;;;20.80;57.10;;;;;;5014225;28;20030;-84
2022/05/15 01:45:19;;;;;;;7.88;5.25;;;20.90;57.30;;;;;;5025489;28;20084;-85
2022/05/15 01:47:44;;;;;;;9.63;5.57;;;20.90;57.40;;;;;;5036999;28;20021;-82
2022/05/15 01:50:13;;;;;;;7.93;5.57;;;20.60;58.00;;;;;;5018622;28;20034;-81
2022/05/15 01:52:39;;;;;;;6.80;5.80;;;20.50;58.40;;;;;;5036331;28;20091;-88
2022/05/15 01:55:06;;;;;;;6.38;5.30;;;20.40;58.50;;;;;;5037127;28;20026;-80
2022/05/15 01:57:31;;;;;;;8.30;5.55;;;20.40;58.90;;;;;;5036264;28;20026;-84
2022/05/15 01:59:57;;;;;;;7.35;5.50;;;20.40;58.70;;;;;;5034971;28;20040;-82
2022/05/15 02:02:22;;;;;;;8.55;5.68;;;20.40;58.70;;;;;;5006457;28;20041;-83
2022/05/15 02:04:49;;;;;;;8.98;5.63;;;20.50;58.60;;;;;;5015038;28;20543;-83
2022/05/15 02:07:14;;;;;;;9.27;5.78;;;20.50;58.20;;;;;;5022025;28;20036;-83
2022/05/15 02:09:40;;;;;;;8.63;5.45;;;20.60;58.20;;;;;;5035097;28;20026;-79
2022/05/15 02:12:07;;;;;;;7.65;5.60;;;20.70;58.10;;;;;;5035912;28;20013;-84
2022/05/15 02:14:33;;;;;;;9.25;5.40;;;20.80;57.50;;;;;;5036222;28;20456;-83
2022/05/15 02:16:58;;;;;;;9.15;5.47;;;20.80;57.40;;;;;;5018505;28;20468;-83
2022/05/15 02:19:24;;;;;;;8.75;5.50;;;20.70;57.30;;;;;;5036425;28;20048;-83
2022/05/15 02:21:50;;;;;;;9.48;6.13;;;20.50;57.60;;;;;;5036154;28;20391;-80
2022/05/15 02:24:15;;;;;;;8.05;5.50;;;20.40;58.00;;;;;;5014624;28;20056;-85
2022/05/15 02:26:41;;;;;;;9.43;5.30;;;20.30;58.40;;;;;;5009617;28;20036;-80
2022/05/15 02:29:08;;;;;;;7.15;5.13;;;20.30;58.40;;;;;;5022768;28;20354;-83
2022/05/15 02:31:34;;;;;;;7.25;5.53;;;20.50;58.10;;;;;;5018089;28;20045;-78
2022/05/15 02:34:00;;;;;;;8.70;5.03;;;20.60;57.60;;;;;;5017366;28;20021;-79
2022/05/15 02:36:27;;;;;;;6.45;4.97;;;20.70;57.20;;;;;;5030964;28;20024;-78
2022/05/15 02:38:53;;;;;;;7.13;5.00;;;20.60;57.90;;;;;;5018048;28;20033;-81
2022/05/15 02:41:19;;;;;;;9.23;5.45;;;20.70;57.50;;;;;;5035642;28;20018;-82
2022/05/15 02:43:45;;;;;;;7.28;5.32;;;20.70;57.60;;;;;;5016102;28;20037;-78
2022/05/15 02:46:10;;;;;;;8.57;5.57;;;20.80;57.40;;;;;;5029064;28;20029;-84
2022/05/15 02:51:21;;;;;;;8.88;6.03;;;21.00;57.30;;;;;;5035386;28;20080;-78
2022/05/15 02:53:47;;;;;;;8.15;6.20;;;21.00;57.60;;;;;;5033904;28;20121;-78
2022/05/15 02:56:30;;;;;;;7.15;5.95;;;21.20;57.20;;;;;;5013267;28;20022;-76
2022/05/15 02:58:56;;;;;;;9.52;6.22;;;21.10;57.00;;;;;;5025937;28;20060;-82
2022/05/15 03:01:22;;;;;;;9.55;6.38;;;21.00;57.20;;;;;;5017149;28;20068;-79
2022/05/15 03:03:48;;;;;;;9.07;6.80;;;20.90;57.50;;;;;;5017007;28;20116;-80
2022/05/15 03:06:15;;;;;;;10.00;6.43;;;20.80;57.60;;;;;;5034344;28;20025;-80
2022/05/15 03:08:45;;;;;;;9.75;7.25;;;20.80;57.80;;;;;;5016257;28;20039;-78
2022/05/15 03:11:11;;;;;;;8.52;6.68;;;20.90;57.90;;;;;;5014198;28;20036;-80
2022/05/15 03:13:37;;;;;;;8.88;6.70;;;20.90;57.70;;;;;;5023412;28;20038;-80
2022/05/15 03:16:04;;;;;;;9.18;7.18;;;21.00;57.50;;;;;;5032632;28;20064;-83
2022/05/15 03:18:30;;;;;;;8.38;6.43;;;20.80;57.90;;;;;;5027697;28;20395;-80
2022/05/15 03:20:56;;;;;;;8.82;6.03;;;20.70;58.00;;;;;;5013383;28;20591;-80
2022/05/15 03:23:21;;;;;;;7.68;6.15;;;20.80;58.10;;;;;;5015275;28;20033;-79
2022/05/15 03:25:47;;;;;;;7.82;6.10;;;20.80;57.80;;;;;;5032811;28;20009;-78
2022/05/15 03:28:13;;;;;;;8.15;6.13;;;20.90;57.50;;;;;;5031754;28;20033;-79
2022/05/15 03:30:40;;;;;;;7.95;5.60;;;21.00;57.20;;;;;;5033746;28;20124;-79
2022/05/15 03:33:08;;;;;;;8.30;5.88;;;21.20;57.00;;;;;;5017009;28;20075;-82
2022/05/15 03:35:34;;;;;;;8.05;5.78;;;21.00;57.00;;;;;;5032347;28;20122;-80
2022/05/15 03:38:01;;;;;;;10.82;5.90;;;21.10;56.90;;;;;;5031004;28;20934;-80
2022/05/15 03:40:27;;;;;;;8.07;5.68;;;21.10;56.80;;;;;;5033766;28;20025;-85
2022/05/15 03:42:54;;;;;;;7.40;6.10;;;21.10;56.90;;;;;;5033522;28;20129;-79
2022/05/15 03:45:20;;;;;;;8.57;6.05;;;21.00;57.10;;;;;;5030544;28;20021;-81
2022/05/15 03:47:51;;;;;;;7.82;5.82;;;21.00;57.20;;;;;;5033562;28;20037;-80
2022/05/15 03:50:18;;;;;;;8.80;5.88;;;21.10;57.50;;;;;;5014803;28;20033;-83
2022/05/15 03:52:43;;;;;;;7.38;5.32;;;21.10;57.40;;;;;;5028569;28;20038;-80
2022/05/15 03:55:10;;;;;;;6.88;5.70;;;21.10;57.60;;;;;;5017371;28;20033;-80
2022/05/15 03:57:36;;;;;;;8.15;5.70;;;21.00;57.80;;;;;;5033376;28;20034;-84
2022/05/15 04:00:04;;;;;;;8.63;6.90;;;21.00;57.90;;;;;;5015677;28;20033;-82
2022/05/15 04:02:30;;;;;;;8.88;6.18;;;20.80;58.40;;;;;;5033635;28;20041;-79
2022/05/15 04:04:56;;;;;;;8.00;5.80;;;20.60;58.50;;;;;;5016194;28;20450;-79
2022/05/15 04:07:22;;;;;;;7.68;5.75;;;20.60;58.50;;;;;;5031177;28;20025;-78
2022/05/15 04:09:49;;;;;;;8.15;5.28;;;20.90;58.20;;;;;;5033750;28;20083;-77
2022/05/15 04:12:16;;;;;;;7.70;5.03;;;20.80;57.90;;;;;;5016646;28;20472;-79
2022/05/15 04:14:41;;;;;;;7.30;5.00;;;20.80;57.90;;;;;;5016441;28;20045;-79
2022/05/15 04:17:07;;;;;;;8.50;5.50;;;20.70;57.90;;;;;;5033601;28;20021;-79
2022/05/15 04:19:37;;;;;;;9.15;5.55;;;20.80;58.00;;;;;;5033532;28;20037;-80
2022/05/15 04:22:05;;;;;;;8.88;5.78;;;20.90;57.90;;;;;;5016346;28;20032;-80
2022/05/15 04:24:33;;;;;;;7.22;6.00;;;20.80;58.40;;;;;;5015953;28;20025;-79
2022/05/15 04:27:00;;;;;;;8.45;6.15;;;20.80;58.10;;;;;;5029181;28;20033;-78
2022/05/15 04:29:26;;;;;;;10.02;6.90;;;20.90;58.30;;;;;;5029810;28;20018;-82
2022/05/15 04:31:57;;;;;;;11.63;6.97;;;20.80;58.50;;;;;;5015812;28;20032;-85
2022/05/15 04:34:24;;;;;;;9.50;6.80;;;20.90;58.60;;;;;;5015614;28;20029;-80
2022/05/15 04:36:51;;;;;;;9.93;6.95;;;20.80;58.70;;;;;;5016419;28;20060;-82
2022/05/15 04:39:17;;;;;;;8.02;6.70;;;20.60;58.90;;;;;;5033535;28;20059;-80
2022/05/15 04:41:43;;;;;;;8.90;6.70;;;20.60;59.40;;;;;;5016071;28;20756;-82
2022/05/15 04:44:09;;;;;;;9.85;6.55;;;20.70;59.30;;;;;;5031979;28;20551;-83
2022/05/15 04:46:35;;;;;;;8.00;6.60;;;20.80;59.90;;;;;;5033776;28;20463;-79
2022/05/15 04:49:01;;;;;;;6.68;5.57;;;20.70;59.60;;;;;;5033014;28;20037;-83
2022/05/15 04:51:27;;;;;;;7.85;5.40;;;20.80;58.80;;;;;;5011158;28;20476;-82
2022/05/15 04:53:53;;;;;;;6.55;5.18;;;21.00;58.40;;;;;;5031912;28;20041;-78
2022/05/15 04:56:19;;;;;;;6.28;4.90;;;21.40;58.10;;;;;;5033533;28;20064;-81
2022/05/15 04:58:45;;;;;;;7.05;5.38;;;21.30;57.30;;;;;;5031509;28;20041;-79
2022/05/15 05:01:10;;;;;;;9.45;5.30;;;21.50;57.60;;;;;;5014575;28;20032;-80
2022/05/15 05:03:36;;;;;;;9.38;5.50;;;21.80;57.30;;;;;;5014017;28;20034;-81
2022/05/15 05:06:03;;;;;;;7.90;5.20;;;22.00;56.60;;;;;;5022780;28;20021;-94
2022/05/15 05:08:30;;;;;;;8.07;5.43;;;21.80;56.60;;;;;;5016139;28;20419;-88
2022/05/15 05:10:56;;;;;;;10.57;5.00;;;22.10;56.70;;;;;;5015139;28;20544;-78
2022/05/15 05:13:21;;;;;;;6.65;5.13;;;22.30;56.70;;;;;;5014397;28;20026;-79
2022/05/15 05:15:47;;;;;;;9.07;4.80;;;22.50;56.50;;;;;;5014559;28;20587;-80
2022/05/15 05:18:14;;;;;;;7.20;4.90;;;22.70;56.40;;;;;;5015457;28;20431;-79
2022/05/15 05:20:40;;;;;;;8.07;4.55;;;22.70;55.60;;;;;;5014044;28;20025;-78
2022/05/15 05:23:05;;;;;;;7.03;4.10;;;22.70;55.30;;;;;;5032872;28;20033;-79
2022/05/15 05:25:32;;;;;;;5.28;4.00;;;22.80;55.50;;;;;;5033072;28;20485;-79
2022/05/15 05:27:59;;;;;;;6.30;3.88;;;22.80;54.80;;;;;;5032912;28;20104;-78
2022/05/15 05:30:25;;;;;;;6.78;4.28;;;22.90;54.70;;;;;;5014745;28;20419;-78
2022/05/15 05:32:51;;;;;;;5.43;3.55;;;23.20;54.10;;;;;;5032028;28;20044;-78
2022/05/15 05:35:20;;;;;;;5.63;3.20;;;23.30;53.80;;;;;;5032696;28;20014;-84
2022/05/15 05:37:46;;;;;;;6.97;3.50;;;23.60;53.40;;;;;;5014613;28;20033;-79
2022/05/15 05:40:12;;;;;;;7.55;3.53;;;23.70;53.50;;;;;;4995902;28;20041;-77
2022/05/15 05:42:38;;;;;;;8.10;4.22;;;23.80;53.00;;;;;;5013302;28;20103;-84
2022/05/15 05:45:05;;;;;;;6.40;3.78;;;24.10;52.90;;;;;;4995761;28;20409;-81
2022/05/15 05:47:31;;;;;;;6.13;3.70;;;24.20;52.30;;;;;;5026616;28;20064;-80
2022/05/15 05:49:57;;;;;;;5.95;3.42;;;24.30;52.40;;;;;;5018863;28;20061;-81
2022/05/15 05:52:24;;;;;;;6.25;3.20;;;24.30;52.50;;;;;;5025958;28;20199;-79
2022/05/15 05:54:50;;;;;;;4.63;3.42;;;24.40;51.90;;;;;;5032860;28;20021;-88
2022/05/15 05:57:16;;;;;;;6.00;3.45;;;24.40;52.40;;;;;;5027642;28;20119;-92
2022/05/15 05:59:43;;;;;;;5.35;3.25;;;24.40;52.70;;;;;;5022638;28;20025;-82
2022/05/15 06:02:09;;;;;;;6.30;3.10;;;24.10;53.10;;;;;;5034950;28;20469;-87
2022/05/15 06:04:42;;;;;;;6.13;3.42;;;24.10;53.20;;;;;;5027086;28;20061;-85
2022/05/15 06:07:16;;;;;;;4.57;3.00;;;24.10;52.90;;;;;;5036178;28;20056;-80
2022/05/15 06:09:45;;;;;;;6.13;3.30;;;24.60;52.70;;;;;;5012793;28;20480;-81
2022/05/15 06:12:13;;;;;;;5.35;3.08;;;24.70;52.40;;;;;;5033178;28;20040;-78
2022/05/15 06:14:39;;;;;;;5.85;3.30;;;24.90;52.30;;;;;;5016404;28;20026;-79
2022/05/15 06:17:05;;;;;;;7.95;3.20;;;24.90;52.70;;;;;;5006713;28;20018;-83
2022/05/15 06:19:32;;;;;;;7.45;3.58;;;25.10;52.60;;;;;;4997949;28;20041;-79
2022/05/15 06:21:58;;;;;;;6.22;3.10;;;25.20;52.30;;;;;;5014928;28;20375;-77
2022/05/15 06:24:25;;;;;;;5.78;3.50;;;25.40;53.20;;;;;;5035467;28;20036;-76
2022/05/15 06:26:52;;;;;;;6.47;3.33;;;25.70;52.60;;;;;;5017718;28;20021;-78
2022/05/15 06:29:18;;;;;;;5.55;3.25;;;26.00;51.50;;;;;;5035145;28;20025;-90
2022/05/15 06:31:44;;;;;;;5.30;3.20;;;26.20;51.50;;;;;;5000433;28;20068;-79
2022/05/15 06:34:09;;;;;;;6.93;3.03;;;26.00;51.40;;;;;;5015949;28;20034;-77
2022/05/15 06:36:36;;;;;;;6.90;3.22;;;26.00;51.50;;;;;;5016066;28;20049;-80
2022/05/15 06:39:03;;;;;;;4.82;3.00;;;26.30;51.10;;;;;;5004707;28;20046;-85
2022/05/15 06:41:28;;;;;;;6.35;2.90;;;26.50;51.10;;;;;;4998205;28;20021;-81
2022/05/15 06:43:54;;;;;;;5.22;3.03;;;26.80;50.80;;;;;;5014180;28;20124;-80
2022/05/15 06:46:20;;;;;;;6.60;2.85;;;27.00;50.40;;;;;;5015879;28;20022;-91
2022/05/15 06:48:46;;;;;;;5.82;2.88;;;26.90;50.00;;;;;;4997883;28;20129;-78
2022/05/15 06:51:16;;;;;;;5.07;3.05;;;26.90;50.30;;;;;;5014986;28;20042;-78
2022/05/15 06:53:44;;;;;;;4.85;2.90;;;27.10;50.00;;;;;;5015515;28;20053;-93
2022/05/15 06:58:54;;;;;;;4.20;2.80;;;27.50;49.80;;;;;;5020621;28;20131;-76
2022/05/15 07:01:20;;;;;;;10.00;2.65;;;27.40;48.70;;;;;;5016103;28;20120;-77
2022/05/15 07:03:46;;;;;;;5.97;2.72;;;27.30;49.50;;;;;;5034525;28;20025;-78
2022/05/15 07:06:12;;;;;;;5.93;2.65;;;27.20;49.60;;;;;;5010724;28;20101;-78
2022/05/15 07:08:38;;;;;;;5.68;2.50;;;27.30;48.60;;;;;;5010918;28;20029;-75
2022/05/15 07:11:04;;;;;;;7.13;2.72;;;27.40;47.20;;;;;;4338161;28;10000735;-80
2022/05/15 07:13:30;;;;;;;5.95;2.72;;;27.80;47.80;;;;;;5012685;28;20033;-79
2022/05/15 07:15:59;;;;;;;7.63;2.83;;;28.00;47.50;;;;;;5002924;28;20037;-83
2022/05/15 07:18:24;;;;;;;8.65;2.75;;;28.10;46.30;;;;;;4978763;28;20397;-78
2022/05/15 07:20:52;;;;;;;7.03;2.60;;;28.30;47.10;;;;;;4999410;28;20669;-80
2022/05/15 07:23:19;;;;;;;6.25;2.67;;;28.50;47.00;;;;;;5012111;28;20481;-83
2022/05/15 07:25:45;;;;;;;7.65;2.83;;;28.50;45.70;;;;;;5003483;28;20025;-83
2022/05/15 07:28:11;;;;;;;4.60;2.50;;;28.70;45.80;;;;;;5005777;28;20107;-85
2022/05/15 07:30:38;;;;;;;6.50;2.50;;;28.90;45.90;;;;;;5003618;28;20754;-81
2022/05/15 07:33:03;;;;;;;5.90;2.40;;;29.00;46.10;;;;;;5032348;28;20120;-85
2022/05/15 07:35:29;;;;;;;6.78;2.67;;;29.20;45.70;;;;;;5003126;28;20030;-79
2022/05/15 07:37:55;;;;;;;9.43;2.67;;;29.10;45.80;;;;;;5002318;28;20067;-82
2022/05/15 07:40:21;;;;;;;8.07;2.78;;;29.10;46.50;;;;;;5012471;28;20022;-79
2022/05/15 07:42:47;;;;;;;9.82;3.25;;;29.10;46.70;;;;;;4995617;28;20041;-81
2022/05/15 07:45:15;;;;;;;5.95;2.60;;;28.90;46.10;;;;;;5003779;28;20385;-80
2022/05/15 07:47:41;;;;;;;7.50;2.45;;;28.60;45.80;;;;;;5032011;28;20044;-76
2022/05/15 07:50:08;;;;;;;5.57;2.47;;;28.80;46.60;;;;;;5014840;28;20005;-78
2022/05/15 07:52:34;;;;;;;10.65;2.85;;;28.90;45.70;;;;;;5010357;28;20050;-81
2022/05/15 07:55:00;;;;;;;4.93;2.25;;;29.00;46.10;;;;;;5005275;28;20034;-82
2022/05/15 07:57:26;;;;;;;8.15;3.92;;;29.30;46.40;;;;;;5011745;28;20017;-82
2022/05/15 07:59:52;;;;;;;5.85;2.65;;;29.50;46.20;;;;;;5005397;28;20030;-89
2022/05/15 08:02:21;;;;;;;7.93;2.40;;;29.50;45.50;;;;;;5000663;28;20403;-77
2022/05/15 08:10:18;;;;;;;17.92;2.50;;;29.30;46.10;;;;;;5029016;28;20052;-82
2022/05/15 08:12:44;;;;;;;6.13;2.70;;;29.50;45.50;;;;;;5029229;28;20029;-80
2022/05/15 08:15:09;;;;;;;4.78;2.45;;;29.60;45.80;;;;;;5012051;28;20055;-82
2022/05/15 08:17:38;;;;;;;6.80;2.10;;;29.70;45.30;;;;;;5010955;28;20040;-90
2022/05/15 08:25:33;;;;;;;5.65;2.60;;;30.00;45.20;;;;;;5029065;28;20082;-85
2022/05/15 08:27:59;;;;;;;7.00;2.38;;;30.00;44.60;;;;;;5004323;28;20029;-80
2022/05/15 08:30:24;;;;;;;4.97;2.30;;;30.10;44.20;;;;;;5018591;28;20038;-84
2022/05/15 08:32:54;;;;;;;4.22;2.22;;;30.10;43.80;;;;;;4998377;28;20026;-81
2022/05/15 08:35:19;;;;;;;6.03;2.30;;;30.10;43.90;;;;;;5022237;28;20034;-80
2022/05/15 08:37:45;;;;;;;6.35;2.20;;;29.80;44.00;;;;;;5008590;28;20091;-78
2022/05/15 08:40:12;;;;;;;5.43;2.50;;;29.80;44.00;;;;;;5016712;28;20026;-79
2022/05/15 08:42:50;;;;;;;4.85;2.20;;;30.10;44.40;;;;;;5001876;28;20034;-83
2022/05/15 08:45:20;;;;;;;8.48;2.80;;;30.20;43.40;;;;;;5007047;28;20026;-79
2022/05/15 08:47:48;;;;;;;5.05;2.28;;;30.10;43.40;;;;;;5005980;28;20025;-82
2022/05/15 08:50:17;;;;;;;7.60;2.20;;;30.10;43.60;;;;;;5018839;28;20052;-85
2022/05/15 08:53:16;;;;;;;5.57;2.45;;;30.00;42.80;;;;;;5003728;28;20060;-82
2022/05/15 08:55:47;;;;;;;5.65;2.25;;;29.50;43.50;;;;;;5027131;28;20029;-89
2022/05/15 08:58:55;;;;;;;5.93;2.33;;;29.60;43.20;;;;;;5027557;28;20072;-84
2022/05/15 09:01:27;;;;;;;7.40;2.33;;;29.30;42.40;;;;;;5011213;28;20033;-76
2022/05/15 09:03:54;;;;;;;5.10;2.40;;;29.40;44.30;;;;;;5009479;28;20112;-79
2022/05/15 09:06:32;;;;;;;6.95;2.35;;;29.80;43.50;;;;;;5013034;28;20026;-83
2022/05/15 09:09:22;;;;;;;5.72;2.10;;;29.80;43.20;;;;;;5030841;28;20362;-86
2022/05/15 09:11:53;;;;;;;;;;;30.20;43.50;;;;;;5010233;28;20029;-79
2022/05/15 09:14:27;;;;;;;8.85;2.10;;;30.20;42.80;;;;;;5013431;28;19956;-84
2022/05/15 09:17:14;;;;;;;9.07;2.35;;;30.60;42.40;;;;;;4995305;28;20065;-82
2022/05/15 09:19:39;;;;;;;5.95;2.25;;;30.80;42.80;;;;;;4999306;28;20033;-79
2022/05/15 09:22:05;;;;;;;7.20;2.55;;;31.00;42.10;;;;;;5026240;28;20021;-79
2022/05/15 09:24:39;;;;;;;5.30;2.30;;;30.90;41.70;;;;;;4999411;28;20045;-85
2022/05/15 09:27:17;;;;;;;6.68;2.70;;;31.00;42.60;;;;;;5024543;28;20048;-80
2022/05/15 09:29:50;;;;;;;4.75;2.10;;;31.20;42.80;;;;;;5011390;28;20090;-78
2022/05/15 09:32:30;;;;;;;10.23;2.33;;;31.30;41.00;;;;;;5000082;28;20443;-80
2022/05/15 09:34:59;;;;;;;5.47;2.70;;;31.20;40.80;;;;;;4992974;28;20034;-79
2022/05/15 09:40:21;;;;;;;5.38;2.15;;;31.20;42.70;;;;;;5017505;28;20032;-90
2022/05/15 09:45:57;;;;;;;8.85;2.53;;;31.10;40.70;;;;;;5033546;28;21844;-82
2022/05/15 09:48:28;;;;;;;5.32;2.58;;;31.30;39.10;;;;;;5006583;28;20034;-81
2022/05/15 09:50:59;;;;;;;6.93;2.30;;;31.10;40.40;;;;;;5018707;28;20038;-88
2022/05/15 09:53:34;;;;;;;6.95;2.47;;;30.80;40.80;;;;;;4999605;28;20041;-80
2022/05/15 09:56:02;;;;;;;8.55;2.20;;;30.60;41.40;;;;;;5009765;28;20060;-81
2022/05/15 09:58:46;;;;;;;3.45;2.30;;;30.40;41.10;;;;;;5029825;28;20052;-80
2022/05/15 10:01:33;;;;;;;5.45;2.13;;;30.60;39.70;;;;;;5033400;28;20040;-84
2022/05/15 10:04:00;;;;;;;6.68;2.58;;;31.20;41.90;;;;;;5021263;28;20029;-81
2022/05/15 10:06:30;;;;;;;8.25;2.40;;;31.30;40.80;;;;;;5011930;28;20061;-82
2022/05/15 10:09:25;;;;;;;7.43;2.30;;;31.10;40.00;;;;;;5034017;28;20076;-79
2022/05/15 10:11:57;;;;;;;5.78;2.17;;;30.90;41.80;;;;;;5033217;28;20030;-89
2022/05/15 10:14:51;;;;;;;5.75;2.28;;;31.00;41.50;;;;;;5029050;28;20056;-86
2022/05/15 10:17:17;;;;;;;6.15;2.30;;;30.90;39.60;;;;;;5012051;28;20386;-80
2022/05/15 10:19:52;;;;;;;5.95;2.00;;;30.90;40.00;;;;;;5008010;28;20578;-83
2022/05/15 10:22:36;;;;;;;6.63;2.20;;;30.70;40.80;;;;;;5011840;28;20025;-88
2022/05/15 10:25:25;;;;;;;6.57;2.10;;;30.50;42.60;;;;;;5033829;28;20103;-80
2022/05/15 10:28:00;;;;;;;5.80;2.10;;;30.60;41.10;;;;;;5016321;28;20037;-81
2022/05/15 10:30:39;;;;;;;12.25;2.35;;;30.70;40.80;;;;;;5014893;28;20021;-83
2022/05/15 10:33:11;;;;;;;4.82;2.10;;;31.10;42.50;;;;;;5034162;28;20484;-81
2022/05/15 10:35:54;;;;;;;13.35;2.95;;;31.30;40.20;;;;;;5030694;28;20049;-82
2022/05/15 10:38:38;;;;;;;8.05;2.67;;;31.30;39.70;;;;;;5011328;28;20049;-81
2022/05/15 10:41:46;;;;;;;7.20;3.08;;;31.10;40.80;;;;;;5010095;28;20380;-81
2022/05/15 10:44:25;;;;;;;6.05;2.47;;;31.30;40.50;;;;;;5015208;28;20093;-84
2022/05/15 10:46:57;;;;;;;6.93;2.85;;;31.60;40.80;;;;;;5014428;28;20420;-79
2022/05/15 10:49:51;;;;;;;7.32;2.58;;;31.80;42.40;;;;;;5013699;28;20073;-83
2022/05/15 10:52:52;;;;;;;9.23;2.42;;;31.90;40.20;;;;;;5018009;28;20099;-80
2022/05/15 10:58:44;;;;;;;6.03;2.40;;;31.90;41.20;;;;;;4955268;29;20172;-88
2022/05/15 11:01:27;;;;;;;7.25;2.00;;;31.70;40.90;;;;;;4955090;29;20055;-83
2022/05/15 11:03:53;;;;;;;7.95;2.13;;;31.60;40.90;;;;;;4953866;28;20030;-81
2022/05/15 11:06:40;;;;;;;7.90;2.25;;;31.50;40.00;;;;;;4952338;28;20045;-84
2022/05/15 11:09:44;;;;;;;6.30;2.50;;;31.10;40.10;;;;;;4934329;29;20035;-84
2022/05/15 11:12:21;;;;;;;10.38;2.88;;;31.30;41.00;;;;;;4944799;28;20538;-82
2022/05/15 11:15:00;;;;;;;7.88;2.40;;;31.30;40.60;;;;;;4959170;28;20537;-80
2022/05/15 11:17:44;;;;;;;5.25;2.40;;;31.50;42.80;;;;;;4954762;28;20127;-86
2022/05/15 11:20:17;;;;;;;5.28;2.53;;;31.40;40.00;;;;;;4974270;28;20125;-81
2022/05/15 11:22:48;;;;;;;4.38;2.10;;;31.30;39.80;;;;;;4968159;28;20031;-80
2022/05/15 11:25:20;;;;;;;6.88;2.63;;;30.80;40.40;;;;;;4955842;28;20050;-82
2022/05/15 11:27:57;;;;;;;6.35;2.40;;;30.30;40.50;;;;;;4953423;28;20478;-79
2022/05/15 11:30:31;;;;;;;7.05;2.20;;;30.40;40.90;;;;;;4954272;28;20430;-79
2022/05/15 11:33:11;;;;;;;4.28;2.30;;;30.50;40.50;;;;;;5019527;28;20140;-78
2022/05/15 11:36:00;;;;;;;4.05;2.13;;;30.40;41.70;;;;;;5016459;28;20040;-85
2022/05/15 11:38:29;;;;;;;7.32;2.40;;;30.80;42.50;;;;;;5013249;28;20045;-89
2022/05/15 11:40:56;;;;;;;8.95;2.22;;;31.00;41.40;;;;;;5030092;28;20067;-80
2022/05/15 11:43:30;;;;;;;7.82;2.47;;;31.10;40.60;;;;;;5009527;28;20033;-78
2022/05/15 11:46:11;;;;;;;4.82;2.10;;;31.20;40.40;;;;;;5023147;28;20030;-80
2022/05/15 11:48:39;;;;;;;6.70;2.10;;;31.50;40.70;;;;;;5026110;28;20053;-80
2022/05/15 11:51:25;;;;;;;9.80;2.30;;;31.40;39.60;;;;;;5015898;28;20048;-86
2022/05/15 11:54:01;;;;;;;8.13;2.20;;;30.90;40.00;;;;;;4998027;28;20112;-82
2022/05/15 11:56:39;;;;;;;4.32;2.00;;;31.00;40.20;;;;;;4996759;28;20030;-80
2022/05/15 11:59:48;;;;;;;6.40;1.95;;;30.70;39.50;;;;;;5015099;28;20037;-83
2022/05/15 12:02:20;;;;;;;9.73;2.30;;;30.50;40.90;;;;;;5019404;28;20045;-85
2022/05/15 12:04:46;;;;;;;10.18;2.25;;;31.10;41.50;;;;;;5034300;28;20049;-83
2022/05/15 12:07:14;;;;;;;4.60;2.10;;;31.40;40.70;;;;;;5016458;28;20060;-84
2022/05/15 12:09:40;;;;;;;4.68;2.20;;;31.10;41.10;;;;;;5033046;28;20037;-86
2022/05/15 12:12:24;;;;;;;8.73;2.20;;;31.00;39.90;;;;;;5032964;28;20022;-82
2022/05/15 12:15:08;;;;;;;6.88;2.10;;;31.10;40.90;;;;;;5032604;28;20025;-84
2022/05/15 12:17:39;;;;;;;8.10;2.10;;;31.10;39.00;;;;;;5030724;28;20041;-84
2022/05/15 12:20:17;;;;;;;12.57;2.50;;;31.30;39.60;;;;;;5033962;28;20032;-84
2022/05/15 12:22:52;;;;;;;6.13;2.30;;;31.40;40.30;;;;;;5018338;28;20109;-80
2022/05/15 12:25:22;;;;;;;5.50;2.33;;;31.40;41.20;;;;;;5016593;28;20411;-83
2022/05/15 12:29:11;;;;;;;;;;;31.30;41.00;;;;;;5033127;28;20472;-77
2022/05/15 12:31:18;;;;;;;7.72;2.30;;;31.40;41.80;;;;;;4987965;28;19912;-83
2022/05/15 12:33:45;;;;;;;8.63;2.45;;;31.40;40.20;;;;;;4976288;28;20110;-82
2022/05/15 12:36:15;;;;;;;6.70;2.15;;;31.30;40.60;;;;;;4991071;28;20034;-80
2022/05/15 12:38:47;;;;;;;13.05;4.32;;;30.80;39.80;;;;;;4980034;28;20039;-81
2022/05/15 12:41:23;;;;;;;11.07;2.38;;;30.90;40.50;;;;;;4971657;28;20038;-84
2022/05/15 12:43:49;;;;;;;6.50;2.10;;;31.10;40.90;;;;;;4286204;28;10000758;-80
2022/05/15 12:46:23;;;;;;;7.40;2.42;;;31.60;41.00;;;;;;4983606;28;20431;-78
2022/05/15 12:48:49;;;;;;;8.57;2.40;;;31.90;41.40;;;;;;4963433;28;20037;-84
2022/05/15 12:51:16;;;;;;;8.38;2.30;;;31.90;41.30;;;;;;4970765;28;20118;-81
2022/05/15 12:53:48;;;;;;;5.90;2.10;;;31.90;40.90;;;;;;4962086;28;20105;-76
2022/05/15 12:56:24;;;;;;;8.90;2.50;;;31.50;39.40;;;;;;4974113;28;20089;-77
2022/05/15 12:58:52;;;;;;;4.63;2.10;;;31.20;39.90;;;;;;4974728;28;20054;-83
2022/05/15 13:01:19;;;;;;;5.05;2.33;;;31.30;40.30;;;;;;4978522;28;20050;-77
2022/05/15 13:03:51;;;;;;;6.10;2.42;;;31.30;39.90;;;;;;4957758;28;20150;-78
2022/05/15 13:06:26;;;;;;;9.73;2.10;;;31.30;40.80;;;;;;4973819;28;20050;-85
2022/05/15 13:08:57;;;;;;;4.75;2.00;;;31.70;40.40;;;;;;5014030;28;20468;-81
2022/05/15 13:11:26;;;;;;;4.75;2.17;;;31.60;39.30;;;;;;5007653;28;20030;-78
2022/05/15 13:13:54;;;;;;;4.55;2.20;;;31.50;41.70;;;;;;5029346;28;20037;-82
2022/05/15 13:16:22;;;;;;;4.47;2.13;;;31.70;40.30;;;;;;5030606;28;20108;-80
2022/05/15 13:18:51;;;;;;;5.85;2.00;;;31.30;39.00;;;;;;5033516;28;20033;-80
2022/05/15 13:21:26;;;;;;;4.93;2.40;;;31.30;40.40;;;;;;5015099;28;20022;-80
2022/05/15 13:23:53;;;;;;;6.13;2.67;;;31.60;39.80;;;;;;5032446;28;20029;-80
2022/05/15 13:26:26;;;;;;;6.53;3.25;;;31.70;40.70;;;;;;5033273;28;20170;-86